Terminal Aerodrome Forecast
Issued by NWS Pocatello, ID

Home | Current Version | Previous Version | Text Only | Print | Product List | Glossary On
Versions: 1 2 3 4 5 6 7 8 9 10 11 12 13 14
000
FTUS45 KPIH 270300 AAB
TAFIDA
TAF AMD
KIDA 270300Z 2703/2724 20010KT P6SM VCSH FEW070 BKN100
     FM271400 21015G25KT P6SM SCT100
     FM271800 22020G30KT P6SM SCT100=

USA.gov is the U.S. government's official web portal to all federal, state and local government web resources and services.